Time;durP1;ratioP1;P1;durP2;ratioP2;P2;SDS_P1;SDS_P2;PMS_P1;PMS_P2;Temp;Humidity;BMP_temperature;BMP_pressure;BME280_temperature;BME280_humidity;BME280_pressure;Samples;Min_cycle;Max_cycle;Signal;HPM_P1;HPM_P2
2023/02/23 00:02:05;;;;;;;;;20.25;18.75;;;;;-147.17;100.00;-15917.19;5021080;28;51339;-71
2023/02/23 00:04:31;;;;;;;;;22.00;21.00;;;;;-147.17;100.00;-15917.19;5025381;28;51179;-71
2023/02/23 00:06:56;;;;;;;;;19.00;16.75;;;;;-147.17;100.00;-15917.19;5014954;28;50951;-69
2023/02/23 00:09:22;;;;;;;;;24.50;19.25;;;;;-147.17;100.00;-15917.19;5018284;28;51124;-71
2023/02/23 00:11:53;;;;;;;;;23.25;18.50;;;;;-147.17;100.00;-15917.19;5016773;28;51340;-71
2023/02/23 00:14:19;;;;;;;;;17.75;17.25;;;;;-147.17;100.00;-15917.19;5019451;28;51705;-70
2023/02/23 00:16:45;;;;;;;;;22.00;17.75;;;;;-147.17;100.00;-15917.19;5008260;28;51004;-69
2023/02/23 00:19:12;;;;;;;;;19.75;18.50;;;;;-147.17;100.00;-15917.19;5021434;28;51173;-69
2023/02/23 00:21:39;;;;;;;;;18.25;18.00;;;;;-147.17;100.00;-15917.19;5015417;28;51105;-70
2023/02/23 00:24:07;;;;;;;;;26.75;21.50;;;;;-147.17;100.00;-15917.19;5013044;28;52072;-69
2023/02/23 00:26:35;;;;;;;;;26.50;24.25;;;;;-147.17;100.00;-15917.19;4995608;28;51059;-72
2023/02/23 00:29:03;;;;;;;;;22.00;20.50;;;;;-147.17;100.00;-15917.19;5008359;28;52781;-71
2023/02/23 00:31:29;;;;;;;;;24.50;21.50;;;;;-147.17;100.00;-15917.19;5027036;28;52093;-69
2023/02/23 00:33:59;;;;;;;;;26.00;22.25;;;;;-147.17;100.00;-15917.19;5029575;28;51238;-70
2023/02/23 00:36:32;;;;;;;;;21.75;19.25;;;;;-147.17;100.00;-15917.19;5027107;28;51193;-69
2023/02/23 00:39:00;;;;;;;;;21.25;17.25;;;;;-147.17;100.00;-15917.19;5028410;28;51206;-70
2023/02/23 00:41:29;;;;;;;;;23.50;22.00;;;;;-147.17;100.00;-15917.19;5032288;28;51086;-70
2023/02/23 00:43:57;;;;;;;;;22.25;21.50;;;;;-147.17;100.00;-15917.19;5022292;28;52235;-70
2023/02/23 00:46:28;;;;;;;;;23.25;22.00;;;;;-147.17;100.00;-15917.19;5024411;28;51344;-71
2023/02/23 00:48:56;;;;;;;;;25.00;22.00;;;;;-147.17;100.00;-15917.19;5025679;28;52190;-72
2023/02/23 00:51:26;;;;;;;;;27.50;24.00;;;;;-147.17;100.00;-15917.19;5025844;28;51725;-72
2023/02/23 00:53:54;;;;;;;;;25.25;20.75;;;;;-147.17;100.00;-15917.19;5025024;28;53097;-70
2023/02/23 00:56:20;;;;;;;;;28.75;22.75;;;;;-147.17;100.00;-15917.19;5025176;28;51239;-71
2023/02/23 00:58:46;;;;;;;;;30.00;24.00;;;;;-147.17;100.00;-15917.19;5007954;28;51376;-73
2023/02/23 01:01:13;;;;;;;;;26.00;24.00;;;;;-147.17;100.00;-15917.19;5028134;28;51169;-73
2023/02/23 01:03:40;;;;;;;;;26.75;25.50;;;;;-147.17;100.00;-15917.19;5026616;28;52849;-72
2023/02/23 01:06:09;;;;;;;;;27.25;25.25;;;;;-147.17;100.00;-15917.19;5023687;28;51150;-72
2023/02/23 01:08:38;;;;;;;;;24.75;21.00;;;;;-147.17;100.00;-15917.19;5023396;28;51268;-73
2023/02/23 01:11:08;;;;;;;;;26.50;23.25;;;;;-147.17;100.00;-15917.19;5032376;28;51281;-72
2023/02/23 01:13:35;;;;;;;;;26.50;24.25;;;;;-147.17;100.00;-15917.19;5026028;28;51228;-72
2023/02/23 01:16:10;;;;;;;;;29.75;25.00;;;;;-147.17;100.00;-15917.19;5026486;28;51319;-71
2023/02/23 01:18:36;;;;;;;;;29.25;27.50;;;;;-147.17;100.00;-15917.19;5026920;28;51149;-72
2023/02/23 01:21:04;;;;;;;;;26.50;24.75;;;;;-147.17;100.00;-15917.19;5021855;28;51985;-73
2023/02/23 01:23:32;;;;;;;;;26.25;23.00;;;;;-147.17;100.00;-15917.19;5003927;28;52969;-72
2023/02/23 01:25:58;;;;;;;;;27.25;24.25;;;;;-147.17;100.00;-15917.19;5007210;28;51369;-72
2023/02/23 01:28:24;;;;;;;;;28.00;26.00;;;;;-147.17;100.00;-15917.19;5029644;28;51217;-73
2023/02/23 01:30:49;;;;;;;;;24.25;22.25;;;;;-147.17;100.00;-15917.19;5014984;28;51390;-70
2023/02/23 01:33:15;;;;;;;;;26.00;25.00;;;;;-147.17;100.00;-15917.19;5029314;28;51242;-70
2023/02/23 01:35:40;;;;;;;;;22.75;21.75;;;;;-147.17;100.00;-15917.19;5027257;28;52030;-69
2023/02/23 01:38:06;;;;;;;;;26.25;25.00;;;;;-147.17;100.00;-15917.19;5026326;28;51183;-69
2023/02/23 01:40:37;;;;;;;;;29.25;22.25;;;;;-147.17;100.00;-15917.19;5034248;28;51301;-69
2023/02/23 01:43:10;;;;;;;;;24.75;22.00;;;;;-147.17;100.00;-15917.19;5010789;28;52296;-69
2023/02/23 01:45:39;;;;;;;;;20.25;19.75;;;;;-147.17;100.00;-15917.19;5022159;28;51194;-70
2023/02/23 01:48:11;;;;;;;;;27.50;25.25;;;;;-147.17;100.00;-15917.19;5013879;28;51126;-74
2023/02/23 01:50:44;;;;;;;;;23.25;21.50;;;;;-147.17;100.00;-15917.19;5019799;28;51069;-71
2023/02/23 01:53:09;;;;;;;;;25.75;25.75;;;;;-147.17;100.00;-15917.19;5030986;28;52374;-72
2023/02/23 01:55:35;;;;;;;;;21.25;20.50;;;;;-147.17;100.00;-15917.19;5037104;28;52288;-71
2023/02/23 01:58:06;;;;;;;;;20.75;18.75;;;;;-147.17;100.00;-15917.19;5027920;28;51318;-72
2023/02/23 02:00:35;;;;;;;;;21.00;19.00;;;;;-147.17;100.00;-15917.19;5010899;28;52118;-72
2023/02/23 02:03:07;;;;;;;;;24.50;23.25;;;;;-147.17;100.00;-15917.19;5024356;28;51907;-72
2023/02/23 02:05:37;;;;;;;;;19.25;18.75;;;;;-147.17;100.00;-15917.19;5026987;28;51140;-72
2023/02/23 02:08:05;;;;;;;;;28.50;22.50;;;;;-147.17;100.00;-15917.19;5019282;28;52056;-73
2023/02/23 02:10:43;;;;;;;;;20.50;20.50;;;;;-147.17;100.00;-15917.19;5028635;28;51857;-73
2023/02/23 02:13:13;;;;;;;;;21.00;20.00;;;;;-147.17;100.00;-15917.19;5028552;28;51937;-72
2023/02/23 02:16:04;;;;;;;;;19.75;18.25;;;;;-147.17;100.00;-15917.19;5031071;28;51042;-72
2023/02/23 02:19:00;;;;;;;;;19.50;18.75;;;;;-147.17;100.00;-15917.19;5026086;28;51058;-71
2023/02/23 02:22:11;;;;;;;;;26.75;24.00;;;;;-147.17;100.00;-15917.19;5012543;28;51349;-71
2023/02/23 02:25:05;;;;;;;;;22.25;20.75;;;;;-147.17;100.00;-15917.19;5025986;28;51418;-70
2023/02/23 02:28:09;;;;;;;;;24.00;22.25;;;;;-147.17;100.00;-15917.19;5007373;28;51200;-69
2023/02/23 02:30:56;;;;;;;;;27.00;24.75;;;;;-147.17;100.00;-15917.19;5015854;28;51374;-71
2023/02/23 02:33:59;;;;;;;;;26.00;25.00;;;;;-147.17;100.00;-15917.19;5029043;28;50915;-71
2023/02/23 02:36:42;;;;;;;;;25.00;23.00;;;;;-147.17;100.00;-15917.19;5022371;28;52731;-71
2023/02/23 02:39:22;;;;;;;;;27.00;23.00;;;;;-147.17;100.00;-15917.19;5022907;28;51153;-71
2023/02/23 02:42:19;;;;;;;;;23.25;22.75;;;;;-147.17;100.00;-15917.19;5026461;28;51267;-71
2023/02/23 02:45:11;;;;;;;;;17.50;16.75;;;;;-147.17;100.00;-15917.19;5032305;28;51110;-69
2023/02/23 02:47:52;;;;;;;;;23.25;22.75;;;;;-147.17;100.00;-15917.19;5022136;28;51945;-70
2023/02/23 02:50:30;;;;;;;;;21.75;19.50;;;;;-147.17;100.00;-15917.19;5020148;28;51240;-70
2023/02/23 02:53:04;;;;;;;;;23.00;21.00;;;;;-147.17;100.00;-15917.19;5029781;28;51102;-70
2023/02/23 02:55:33;;;;;;;;;25.75;23.50;;;;;-147.17;100.00;-15917.19;5027653;28;51151;-70
2023/02/23 02:58:01;;;;;;;;;23.75;22.00;;;;;-147.17;100.00;-15917.19;5001995;28;52151;-70
2023/02/23 04:18:25;;;;;;;;;19.25;18.25;;;;;-147.17;100.00;-15917.19;5017233;28;52976;-70
2023/02/23 04:20:51;;;;;;;;;22.25;20.75;;;;;-147.17;100.00;-15917.19;5019349;28;51148;-69
2023/02/23 04:23:17;;;;;;;;;19.75;18.25;;;;;-147.17;100.00;-15917.19;5030845;28;51089;-70
2023/02/23 04:25:43;;;;;;;;;21.50;20.75;;;;;-147.17;100.00;-15917.19;5012403;28;51375;-71
2023/02/23 04:28:08;;;;;;;;;24.25;22.50;;;;;-147.17;100.00;-15917.19;5005850;28;53717;-70
2023/02/23 04:30:33;;;;;;;;;24.00;22.75;;;;;-147.17;100.00;-15917.19;5016057;28;50999;-70
2023/02/23 04:32:59;;;;;;;;;21.50;21.50;;;;;-147.17;100.00;-15917.19;5022707;28;51281;-70
2023/02/23 04:35:26;;;;;;;;;18.00;15.00;;;;;-147.17;100.00;-15917.19;5013349;28;51184;-69
2023/02/23 04:37:52;;;;;;;;;21.50;18.25;;;;;-147.17;100.00;-15917.19;5017768;28;51915;-71
2023/02/23 04:40:17;;;;;;;;;23.00;19.75;;;;;-147.17;100.00;-15917.19;5025541;28;51213;-70
2023/02/23 04:42:43;;;;;;;;;24.50;22.25;;;;;-147.17;100.00;-15917.19;5014804;28;51417;-70
2023/02/23 04:45:09;;;;;;;;;22.25;21.00;;;;;-147.17;100.00;-15917.19;5023059;28;51103;-70
2023/02/23 04:47:34;;;;;;;;;28.00;25.00;;;;;-147.17;100.00;-15917.19;5012231;28;51213;-71
2023/02/23 04:50:00;;;;;;;;;26.25;23.75;;;;;-147.17;100.00;-15917.19;5008595;28;51165;-72
2023/02/23 04:52:25;;;;;;;;;20.25;20.25;;;;;-147.17;100.00;-15917.19;5022748;28;51097;-70
2023/02/23 04:54:51;;;;;;;;;26.25;24.75;;;;;-147.17;100.00;-15917.19;5007895;28;51018;-71
2023/02/23 04:57:17;;;;;;;;;21.75;18.75;;;;;-147.17;100.00;-15917.19;5006266;28;53846;-71
2023/02/23 04:59:42;;;;;;;;;22.50;22.50;;;;;-147.17;100.00;-15917.19;5023958;28;51095;-70
2023/02/23 05:02:07;;;;;;;;;24.00;23.00;;;;;-147.17;100.00;-15917.19;5026477;28;51138;-71
2023/02/23 05:04:36;;;;;;;;;25.00;23.50;;;;;-147.17;100.00;-15917.19;5012015;28;51213;-69
2023/02/23 05:07:04;;;;;;;;;24.50;22.25;;;;;-147.17;100.00;-15917.19;5013135;28;52030;-71
2023/02/23 05:09:31;;;;;;;;;25.00;23.00;;;;;-147.17;100.00;-15917.19;5009656;28;51059;-68
2023/02/23 05:11:57;;;;;;;;;26.00;24.50;;;;;-147.17;100.00;-15917.19;4997384;28;51261;-70
2023/02/23 05:14:22;;;;;;;;;25.75;23.25;;;;;-147.17;100.00;-15917.19;5003623;28;51768;-70
2023/02/23 05:16:48;;;;;;;;;27.50;25.25;;;;;-147.17;100.00;-15917.19;4982150;28;54302;-73
2023/02/23 05:19:14;;;;;;;;;26.50;25.75;;;;;-147.17;100.00;-15917.19;4999928;28;51031;-70
2023/02/23 05:21:40;;;;;;;;;27.25;24.00;;;;;-147.17;100.00;-15917.19;4994063;28;53398;-70
2023/02/23 05:24:06;;;;;;;;;22.50;22.00;;;;;-147.17;100.00;-15917.19;4998593;28;51227;-69
2023/02/23 05:26:34;;;;;;;;;28.50;27.75;;;;;-147.17;100.00;-15917.19;5010913;28;51978;-71
2023/02/23 05:29:00;;;;;;;;;28.75;27.25;;;;;-147.17;100.00;-15917.19;5011135;28;51062;-69
2023/02/23 05:31:25;;;;;;;;;25.75;22.25;;;;;-147.17;100.00;-15917.19;4999948;28;51216;-71
2023/02/23 05:33:51;;;;;;;;;26.25;25.00;;;;;-147.17;100.00;-15917.19;5008034;28;51711;-68
2023/02/23 05:36:18;;;;;;;;;26.50;25.25;;;;;-147.17;100.00;-15917.19;5001604;28;53587;-71
2023/02/23 05:38:45;;;;;;;;;25.25;24.50;;;;;-147.17;100.00;-15917.19;4994807;28;51121;-71
2023/02/23 05:41:14;;;;;;;;;28.00;27.75;;;;;-147.17;100.00;-15917.19;5002938;28;51197;-70
2023/02/23 05:43:40;;;;;;;;;27.00;25.75;;;;;-147.17;100.00;-15917.19;4999814;28;51170;-69
2023/02/23 05:46:11;;;;;;;;;24.00;21.75;;;;;-147.17;100.00;-15917.19;5004690;28;52407;-71
2023/02/23 05:48:37;;;;;;;;;19.25;17.25;;;;;-147.17;100.00;-15917.19;4995266;28;50927;-72
2023/02/23 05:51:04;;;;;;;;;29.25;27.25;;;;;-147.17;100.00;-15917.19;5009720;28;51182;-70
2023/02/23 05:53:29;;;;;;;;;25.00;23.00;;;;;-147.17;100.00;-15917.19;4997099;28;51301;-70
2023/02/23 05:55:54;;;;;;;;;28.00;25.00;;;;;-147.17;100.00;-15917.19;5001227;28;51800;-70
2023/02/23 05:58:20;;;;;;;;;18.00;18.00;;;;;-147.17;100.00;-15917.19;4992853;28;51081;-70
2023/02/23 06:00:45;;;;;;;;;29.25;27.75;;;;;-147.17;100.00;-15917.19;4994224;28;51143;-71
2023/02/23 06:03:11;;;;;;;;;23.75;21.25;;;;;-147.17;100.00;-15917.19;4993047;28;51272;-69
2023/02/23 06:05:36;;;;;;;;;25.00;23.00;;;;;-147.17;100.00;-15917.19;4996591;28;51143;-69
2023/02/23 06:08:02;;;;;;;;;27.00;24.00;;;;;-147.17;100.00;-15917.19;5003740;28;50970;-70
2023/02/23 06:10:27;;;;;;;;;27.25;22.50;;;;;-147.17;100.00;-15917.19;4993046;28;51228;-71
2023/02/23 06:12:52;;;;;;;;;23.50;21.00;;;;;-147.17;100.00;-15917.19;5027710;28;51018;-70
2023/02/23 06:15:18;;;;;;;;;21.50;20.25;;;;;-147.17;100.00;-15917.19;5010537;28;52445;-71
2023/02/23 06:17:43;;;;;;;;;26.00;24.00;;;;;-147.17;100.00;-15917.19;5021031;28;51025;-69
2023/02/23 06:20:09;;;;;;;;;20.75;19.25;;;;;-147.17;100.00;-15917.19;5015240;28;50907;-70
2023/02/23 06:22:35;;;;;;;;;26.50;24.25;;;;;-147.17;100.00;-15917.19;5016181;28;51393;-71
2023/02/23 06:25:03;;;;;;;;;28.50;27.00;;;;;-147.17;100.00;-15917.19;5027053;28;51522;-70
2023/02/23 06:27:29;;;;;;;;;22.75;21.00;;;;;-147.17;100.00;-15917.19;5021940;28;51184;-70
2023/02/23 06:29:54;;;;;;;;;24.50;22.75;;;;;-147.17;100.00;-15917.19;5018993;28;51193;-72
2023/02/23 06:32:20;;;;;;;;;21.50;17.00;;;;;-147.17;100.00;-15917.19;5031314;28;51515;-70
2023/02/23 06:34:45;;;;;;;;;23.25;22.75;;;;;-147.17;100.00;-15917.19;5018063;28;52749;-69
2023/02/23 06:37:11;;;;;;;;;26.25;22.50;;;;;-147.17;100.00;-15917.19;5015452;28;51103;-69
2023/02/23 06:39:36;;;;;;;;;29.00;25.00;;;;;-147.17;100.00;-15917.19;5020214;28;51338;-72
2023/02/23 06:42:02;;;;;;;;;22.75;19.75;;;;;-147.17;100.00;-15917.19;5031903;28;51051;-71
2023/02/23 06:44:27;;;;;;;;;25.25;22.00;;;;;-147.17;100.00;-15917.19;5015327;28;50987;-73
2023/02/23 06:46:53;;;;;;;;;26.00;21.25;;;;;-147.17;100.00;-15917.19;5015507;28;50948;-70
2023/02/23 06:49:18;;;;;;;;;28.50;25.25;;;;;-147.17;100.00;-15917.19;5018824;28;51190;-70
2023/02/23 06:51:43;;;;;;;;;24.00;23.00;;;;;-147.17;100.00;-15917.19;5020544;28;50884;-70
2023/02/23 06:54:09;;;;;;;;;24.50;22.75;;;;;-147.17;100.00;-15917.19;5017791;28;51286;-69
2023/02/23 06:56:34;;;;;;;;;21.75;20.50;;;;;-147.17;100.00;-15917.19;5034758;28;50908;-69
2023/02/23 06:59:00;;;;;;;;;25.50;23.75;;;;;-147.17;100.00;-15917.19;5033084;28;51148;-70
2023/02/23 07:01:25;;;;;;;;;29.50;26.00;;;;;-147.17;100.00;-15917.19;5018134;28;51157;-70
2023/02/23 07:03:50;;;;;;;;;26.50;24.25;;;;;-147.17;100.00;-15917.19;5032500;28;51315;-70
2023/02/23 07:06:16;;;;;;;;;23.25;22.00;;;;;-147.17;100.00;-15917.19;5014883;28;51363;-70
2023/02/23 07:08:41;;;;;;;;;26.25;23.00;;;;;-147.17;100.00;-15917.19;5024683;28;51045;-69
2023/02/23 07:11:14;;;;;;;;;25.25;23.25;;;;;-147.17;100.00;-15917.19;5030079;28;51288;-68
2023/02/23 07:13:41;;;;;;;;;27.25;24.25;;;;;-147.17;100.00;-15917.19;5024589;28;51132;-70
2023/02/23 07:16:07;;;;;;;;;23.50;20.50;;;;;-147.17;100.00;-15917.19;5018789;28;51102;-69
2023/02/23 07:18:33;;;;;;;;;24.00;20.00;;;;;-147.17;100.00;-15917.19;5023843;28;50960;-69
2023/02/23 07:20:58;;;;;;;;;22.50;22.25;;;;;-147.17;100.00;-15917.19;5012616;28;51126;-68
2023/02/23 07:23:24;;;;;;;;;29.00;21.25;;;;;-147.17;100.00;-15917.19;5003219;28;51702;-70
2023/02/23 07:25:51;;;;;;;;;22.00;21.50;;;;;-147.17;100.00;-15917.19;5020305;28;51388;-70
2023/02/23 07:28:16;;;;;;;;;26.00;22.25;;;;;-147.17;100.00;-15917.19;5000856;28;51129;-69
2023/02/23 07:30:42;;;;;;;;;23.50;20.75;;;;;-147.17;100.00;-15917.19;5016719;28;51035;-69
2023/02/23 07:33:07;;;;;;;;;22.25;21.75;;;;;-147.17;100.00;-15917.19;5025670;28;51148;-72
2023/02/23 07:35:33;;;;;;;;;22.25;21.50;;;;;-147.17;100.00;-15917.19;5031864;28;51126;-70
2023/02/23 07:37:58;;;;;;;;;28.00;26.75;;;;;-147.17;100.00;-15917.19;5033441;28;51241;-70
2023/02/23 07:40:24;;;;;;;;;24.00;22.00;;;;;-147.17;100.00;-15917.19;5033620;28;50905;-71
2023/02/23 07:42:50;;;;;;;;;27.25;24.75;;;;;-147.17;100.00;-15917.19;5033186;28;51292;-70
2023/02/23 07:45:16;;;;;;;;;24.50;22.75;;;;;-147.17;100.00;-15917.19;5003164;28;50953;-70
2023/02/23 07:47:42;;;;;;;;;26.75;26.25;;;;;-147.17;100.00;-15917.19;5025429;28;51037;-70
2023/02/23 07:50:09;;;;;;;;;27.75;26.25;;;;;-147.17;100.00;-15917.19;5014181;28;50939;-71
2023/02/23 07:52:39;;;;;;;;;29.75;27.75;;;;;-147.17;100.00;-15917.19;4999420;28;54059;-70
2023/02/23 07:55:07;;;;;;;;;26.00;24.00;;;;;-147.17;100.00;-15917.19;5013594;28;50948;-69
2023/02/23 07:57:33;;;;;;;;;29.25;26.75;;;;;-147.17;100.00;-15917.19;5013721;28;51077;-71
2023/02/23 07:59:59;;;;;;;;;29.75;27.25;;;;;-147.17;100.00;-15917.19;5024443;28;51264;-72
2023/02/23 08:02:24;;;;;;;;;28.75;26.50;;;;;-147.17;100.00;-15917.19;5033282;28;51126;-71
2023/02/23 08:04:52;;;;;;;;;28.00;20.50;;;;;-147.17;100.00;-15917.19;5009157;28;51086;-66
2023/02/23 08:07:18;;;;;;;;;25.75;21.25;;;;;-147.17;100.00;-15917.19;5015809;28;51202;-66
2023/02/23 08:09:43;;;;;;;;;22.00;21.25;;;;;-147.17;100.00;-15917.19;5001961;28;51446;-63
2023/02/23 08:12:09;;;;;;;;;23.00;21.25;;;;;-147.17;100.00;-15917.19;5027947;28;52671;-65
2023/02/23 08:14:34;;;;;;;;;23.00;20.25;;;;;-147.17;100.00;-15917.19;5031465;28;51125;-65
2023/02/23 08:17:00;;;;;;;;;18.75;17.50;;;;;-147.17;100.00;-15917.19;5031911;28;51196;-67
2023/02/23 08:19:26;;;;;;;;;20.75;20.75;;;;;-147.17;100.00;-15917.19;5031658;28;51427;-65
2023/02/23 08:21:51;;;;;;;;;21.50;20.25;;;;;-147.17;100.00;-15917.19;5025404;28;51190;-65
2023/02/23 08:24:17;;;;;;;;;24.25;21.25;;;;;-147.17;100.00;-15917.19;5022282;28;51167;-64
2023/02/23 08:26:42;;;;;;;;;20.25;20.25;;;;;-147.17;100.00;-15917.19;5018353;28;51043;-64
2023/02/23 08:29:08;;;;;;;;;21.00;17.50;;;;;-147.17;100.00;-15917.19;5002126;28;51349;-63
2023/02/23 08:31:34;;;;;;;;;21.00;20.00;;;;;-147.17;100.00;-15917.19;5017420;28;51805;-66
2023/02/23 08:34:00;;;;;;;;;22.75;22.00;;;;;-147.17;100.00;-15917.19;5024636;28;51270;-63
2023/02/23 08:36:26;;;;;;;;;21.50;20.00;;;;;-147.17;100.00;-15917.19;5018453;28;50978;-65
2023/02/23 08:38:53;;;;;;;;;22.00;20.25;;;;;-147.17;100.00;-15917.19;5032525;28;51295;-64
2023/02/23 08:41:19;;;;;;;;;23.25;21.25;;;;;-147.17;100.00;-15917.19;5030700;28;51271;-64
2023/02/23 08:43:44;;;;;;;;;20.75;18.75;;;;;-147.17;100.00;-15917.19;5018889;28;51018;-64
2023/02/23 08:46:10;;;;;;;;;18.25;16.75;;;;;-147.17;100.00;-15917.19;5022960;28;50972;-65
2023/02/23 08:48:37;;;;;;;;;21.00;18.50;;;;;-147.17;100.00;-15917.19;5013136;28;50905;-63
2023/02/23 08:51:03;;;;;;;;;15.25;14.00;;;;;-147.17;100.00;-15917.19;5024767;28;51124;-62
2023/02/23 08:53:29;;;;;;;;;27.25;24.50;;;;;-147.17;100.00;-15917.19;5030084;28;51462;-64
2023/02/23 08:56:00;;;;;;;;;23.25;23.25;;;;;-147.17;100.00;-15917.19;5023748;28;51121;-64
2023/02/23 08:58:27;;;;;;;;;26.75;22.50;;;;;-147.17;100.00;-15917.19;5016961;28;50983;-62
2023/02/23 09:00:52;;;;;;;;;20.25;19.00;;;;;-147.17;100.00;-15917.19;5026643;28;51125;-62
2023/02/23 09:03:19;;;;;;;;;21.50;21.25;;;;;-147.17;100.00;-15917.19;5022911;28;51107;-63
2023/02/23 09:05:45;;;;;;;;;26.50;24.00;;;;;-147.17;100.00;-15917.19;5011916;28;51210;-62
2023/02/23 09:08:12;;;;;;;;;15.00;11.50;;;;;-147.17;100.00;-15917.19;5018630;28;51850;-63
2023/02/23 09:10:38;;;;;;;;;17.50;16.50;;;;;-147.17;100.00;-15917.19;5015108;28;51148;-63
2023/02/23 09:13:04;;;;;;;;;22.25;22.25;;;;;-147.17;100.00;-15917.19;5000226;28;51158;-62
2023/02/23 09:15:29;;;;;;;;;16.50;16.00;;;;;-147.17;100.00;-15917.19;5014558;28;51267;-62
2023/02/23 09:18:00;;;;;;;;;19.00;18.00;;;;;-147.17;100.00;-15917.19;5023366;28;51155;-62
2023/02/23 09:20:25;;;;;;;;;18.00;16.25;;;;;-147.17;100.00;-15917.19;5023296;28;51090;-62
2023/02/23 09:22:52;;;;;;;;;26.25;24.25;;;;;-147.17;100.00;-15917.19;5011967;28;51094;-63
2023/02/23 09:25:21;;;;;;;;;23.25;20.25;;;;;-147.17;100.00;-15917.19;5014999;28;51372;-63
2023/02/23 09:27:52;;;;;;;;;19.25;17.50;;;;;-147.17;100.00;-15917.19;5012804;28;51301;-64
2023/02/23 09:30:19;;;;;;;;;19.50;17.75;;;;;-147.17;100.00;-15917.19;5021228;28;51113;-63
2023/02/23 09:32:55;;;;;;;;;21.00;19.50;;;;;-147.17;100.00;-15917.19;5016149;28;51081;-63
2023/02/23 09:35:22;;;;;;;;;18.75;17.50;;;;;-147.17;100.00;-15917.19;5013704;28;51109;-64
2023/02/23 09:37:50;;;;;;;;;22.25;19.75;;;;;-147.17;100.00;-15917.19;5028549;28;51291;-64
2023/02/23 09:40:28;;;;;;;;;20.00;19.00;;;;;-147.17;100.00;-15917.19;5010975;28;51943;-64
2023/02/23 09:43:07;;;;;;;;;19.50;18.50;;;;;-147.17;100.00;-15917.19;5002715;28;50992;-63
2023/02/23 09:45:32;;;;;;;;;25.25;22.00;;;;;-147.17;100.00;-15917.19;5028843;28;51231;-64
2023/02/23 09:48:21;;;;;;;;;21.75;20.75;;;;;-147.17;100.00;-15917.19;5016293;28;51297;-63
2023/02/23 09:50:50;;;;;;;;;23.75;22.75;;;;;-147.17;100.00;-15917.19;5023459;28;50973;-63
2023/02/23 09:53:36;;;;;;;;;26.75;24.75;;;;;-147.17;100.00;-15917.19;5011485;28;50881;-62
2023/02/23 09:56:10;;;;;;;;;26.50;26.00;;;;;-147.17;100.00;-15917.19;5028569;28;51160;-62
2023/02/23 09:58:36;;;;;;;;;30.50;28.50;;;;;-147.17;100.00;-15917.19;5029868;28;51184;-62
2023/02/23 10:01:17;;;;;;;;;34.50;31.00;;;;;-147.17;100.00;-15917.19;5014394;28;51099;-62
2023/02/23 10:04:09;;;;;;;;;31.50;30.25;;;;;-147.17;100.00;-15917.19;5023581;28;51055;-62
2023/02/23 10:06:35;;;;;;;;;36.75;31.25;;;;;-147.17;100.00;-15917.19;5015016;28;51227;-62
2023/02/23 10:09:22;;;;;;;;;37.00;32.00;;;;;-147.17;100.00;-15917.19;5019004;28;51181;-63
2023/02/23 10:12:00;;;;;;;;;34.50;31.00;;;;;-147.17;100.00;-15917.19;5022979;28;52011;-62
2023/02/23 10:14:25;;;;;;;;;30.00;29.50;;;;;-147.17;100.00;-15917.19;5010479;28;51024;-63
2023/02/23 10:17:08;;;;;;;;;37.00;32.75;;;;;-147.17;100.00;-15917.19;5022870;28;51770;-63
2023/02/23 10:20:01;;;;;;;;;28.25;27.00;;;;;-147.17;100.00;-15917.19;5017419;28;51278;-63
2023/02/23 10:22:28;;;;;;;;;28.75;28.50;;;;;-147.17;100.00;-15917.19;4995218;28;52034;-65
2023/02/23 10:25:14;;;;;;;;;38.75;32.75;;;;;-147.17;100.00;-15917.19;5012698;28;51168;-64
2023/02/23 10:27:44;;;;;;;;;32.25;30.25;;;;;-147.17;100.00;-15917.19;4994088;28;51099;-63
2023/02/23 10:30:28;;;;;;;;;32.75;29.75;;;;;-147.17;100.00;-15917.19;5029864;28;51069;-62
2023/02/23 10:33:04;;;;;;;;;35.75;32.25;;;;;-147.17;100.00;-15917.19;5003650;28;51206;-62
2023/02/23 10:35:30;;;;;;;;;34.75;33.25;;;;;-147.17;100.00;-15917.19;5017650;28;51178;-64
2023/02/23 10:37:59;;;;;;;;;36.25;33.00;;;;;-147.17;100.00;-15917.19;5024089;28;51039;-63
2023/02/23 10:40:27;;;;;;;;;32.25;29.50;;;;;-147.17;100.00;-15917.19;5023532;28;50856;-63
2023/02/23 10:42:54;;;;;;;;;41.50;34.00;;;;;-147.17;100.00;-15917.19;5007843;28;51188;-63
2023/02/23 10:45:22;;;;;;;;;37.00;33.00;;;;;-147.17;100.00;-15917.19;5016524;28;51157;-64
2023/02/23 10:47:56;;;;;;;;;42.25;36.00;;;;;-147.17;100.00;-15917.19;5027775;28;51092;-63
2023/02/23 10:50:25;;;;;;;;;38.50;32.50;;;;;-147.17;100.00;-15917.19;5017551;28;51018;-64
2023/02/23 10:52:53;;;;;;;;;31.00;29.75;;;;;-147.17;100.00;-15917.19;5020187;28;52904;-63
2023/02/23 10:55:30;;;;;;;;;33.25;31.25;;;;;-147.17;100.00;-15917.19;5013022;28;51211;-63
2023/02/23 10:58:18;;;;;;;;;52.75;43.25;;;;;-147.17;100.00;-15917.19;5019189;28;51187;-65
2023/02/23 11:01:00;;;;;;;;;36.75;33.00;;;;;-147.17;100.00;-15917.19;5031354;28;50923;-65
2023/02/23 11:03:32;;;;;;;;;28.75;26.25;;;;;-147.17;100.00;-15917.19;5026245;28;53890;-65
2023/02/23 11:05:58;;;;;;;;;36.00;32.50;;;;;-147.17;100.00;-15917.19;5017821;28;51204;-65
2023/02/23 11:08:33;;;;;;;;;34.25;32.25;;;;;-147.17;100.00;-15917.19;5026367;28;51406;-67
2023/02/23 11:11:17;;;;;;;;;34.00;30.75;;;;;-147.17;100.00;-15917.19;5023944;28;51117;-65
2023/02/23 11:13:48;;;;;;;;;29.75;28.00;;;;;-147.17;100.00;-15917.19;5025947;28;51907;-65
2023/02/23 11:16:21;;;;;;;;;28.75;26.25;;;;;-147.17;100.00;-15917.19;5031195;28;51242;-64
2023/02/23 11:18:59;;;;;;;;;30.00;27.00;;;;;-147.17;100.00;-15917.19;5021088;28;51180;-65
2023/02/23 11:21:28;;;;;;;;;34.50;31.25;;;;;-147.17;100.00;-15917.19;5023030;28;52654;-64
2023/02/23 11:23:56;;;;;;;;;29.50;28.00;;;;;-147.17;100.00;-15917.19;5012951;28;52620;-64
2023/02/23 11:26:43;;;;;;;;;31.00;28.00;;;;;-147.17;100.00;-15917.19;5013142;28;51161;-65
2023/02/23 11:29:36;;;;;;;;;30.00;27.50;;;;;-147.17;100.00;-15917.19;5013346;28;51340;-64
2023/02/23 11:32:15;;;;;;;;;30.50;29.00;;;;;-147.17;100.00;-15917.19;5006757;28;51417;-65
2023/02/23 11:34:42;;;;;;;;;25.00;24.25;;;;;-147.17;100.00;-15917.19;4995315;28;51219;-65
2023/02/23 11:37:19;;;;;;;;;24.25;23.50;;;;;-147.17;100.00;-15917.19;4996370;28;51131;-65
2023/02/23 11:39:59;;;;;;;;;23.75;23.75;;;;;-147.17;100.00;-15917.19;5022442;28;51340;-65
2023/02/23 11:42:32;;;;;;;;;26.50;23.25;;;;;-147.17;100.00;-15917.19;5014979;28;51160;-64
2023/02/23 11:45:20;;;;;;;;;24.75;23.00;;;;;-147.17;100.00;-15917.19;5031548;28;51171;-65
2023/02/23 11:47:49;;;;;;;;;27.50;26.75;;;;;-147.17;100.00;-15917.19;5032035;28;51027;-64
2023/02/23 11:50:26;;;;;;;;;25.75;24.25;;;;;-147.17;100.00;-15917.19;5032019;28;51375;-64
2023/02/23 11:52:59;;;;;;;;;28.00;25.75;;;;;-147.17;100.00;-15917.19;5030510;28;51289;-65
2023/02/23 11:55:24;;;;;;;;;27.00;26.00;;;;;-147.17;100.00;-15917.19;5031980;28;52077;-63
2023/02/23 11:57:52;;;;;;;;;32.50;29.75;;;;;-147.17;100.00;-15917.19;5031594;28;51273;-63
2023/02/23 12:00:26;;;;;;;;;22.50;21.25;;;;;-147.17;100.00;-15917.19;5001343;28;51147;-63
2023/02/23 12:02:57;;;;;;;;;24.50;22.75;;;;;-147.17;100.00;-15917.19;5032292;28;51227;-65
2023/02/23 12:05:29;;;;;;;;;27.25;27.25;;;;;-147.17;100.00;-15917.19;5032926;28;52229;-64
2023/02/23 12:08:14;;;;;;;;;27.50;26.00;;;;;-147.17;100.00;-15917.19;5026149;28;51010;-65
2023/02/23 12:10:50;;;;;;;;;26.75;25.75;;;;;-147.17;100.00;-15917.19;5032999;28;51010;-64
2023/02/23 12:13:24;;;;;;;;;26.50;25.00;;;;;-147.17;100.00;-15917.19;5004534;28;51211;-65
2023/02/23 12:16:04;;;;;;;;;28.75;26.50;;;;;-147.17;100.00;-15917.19;4991829;28;53836;-66
2023/02/23 12:18:40;;;;;;;;;29.25;27.75;;;;;-147.17;100.00;-15917.19;4991103;28;51575;-65